Time;durP1;ratioP1;P1;durP2;ratioP2;P2;SDS_P1;SDS_P2;PMS_P1;PMS_P2;Temp;Humidity;BMP_temperature;BMP_pressure;BME280_temperature;BME280_humidity;BME280_pressure;Samples;Min_cycle;Max_cycle;Signal;HPM_P1;HPM_P2
2022/06/15 00:00:13;;;;;;;12.93;8.93;;;14.80;99.90;;;;;;4972009;28;20200;-85
2022/06/15 00:02:40;;;;;;;14.70;10.23;;;14.80;99.90;;;;;;4972640;28;20295;-90
2022/06/15 00:05:09;;;;;;;14.87;10.70;;;14.80;99.90;;;;;;4967879;28;20220;-88
2022/06/15 00:07:36;;;;;;;11.77;9.47;;;14.80;99.90;;;;;;4951259;29;20213;-85
2022/06/15 00:10:04;;;;;;;11.83;9.27;;;14.70;99.90;;;;;;4972539;28;20511;-91
2022/06/15 00:12:31;;;;;;;10.10;8.20;;;14.70;99.90;;;;;;4972933;28;20223;-89
2022/06/15 00:14:58;;;;;;;11.37;8.60;;;14.70;99.90;;;;;;4973669;28;20204;-90
2022/06/15 00:17:24;;;;;;;12.07;9.27;;;14.70;99.90;;;;;;4973208;28;20227;-86
2022/06/15 00:19:51;;;;;;;21.27;11.93;;;14.60;99.90;;;;;;4973351;28;20228;-87
2022/06/15 00:22:19;;;;;;;12.73;9.17;;;14.60;99.90;;;;;;4972581;28;20209;-88
2022/06/15 00:24:47;;;;;;;14.80;9.27;;;14.60;99.90;;;;;;4972996;28;20196;-85
2022/06/15 00:27:14;;;;;;;13.83;9.10;;;14.60;99.90;;;;;;4963109;28;20210;-86
2022/06/15 00:29:41;;;;;;;15.40;10.50;;;14.60;99.90;;;;;;4952453;29;20203;-85
2022/06/15 00:32:09;;;;;;;12.37;9.63;;;14.60;99.90;;;;;;4953438;29;20213;-87
2022/06/15 00:34:36;;;;;;;15.23;10.87;;;14.60;99.90;;;;;;4967901;28;20628;-88
2022/06/15 00:37:04;;;;;;;12.93;10.73;;;14.60;99.90;;;;;;4973175;28;20228;-87
2022/06/15 00:39:34;;;;;;;13.70;10.03;;;14.50;99.90;;;;;;4973187;28;20235;-86
2022/06/15 00:42:02;;;;;;;12.00;8.83;;;14.60;99.90;;;;;;4973076;28;20609;-87
2022/06/15 00:44:34;;;;;;;14.53;9.10;;;14.50;99.90;;;;;;4972309;28;20597;-88
2022/06/15 00:47:04;;;;;;;15.43;9.33;;;14.50;99.90;;;;;;4972601;28;20287;-86
2022/06/15 00:49:35;;;;;;;11.23;8.70;;;14.50;99.90;;;;;;4972232;28;20204;-86
2022/06/15 00:52:08;;;;;;;9.83;7.77;;;14.40;99.90;;;;;;4965106;28;20228;-87
2022/06/15 00:54:37;;;;;;;16.67;10.27;;;14.40;99.90;;;;;;4956934;29;20509;-88
2022/06/15 00:57:05;;;;;;;10.27;8.47;;;14.40;99.90;;;;;;4965076;28;20708;-88
2022/06/15 00:59:35;;;;;;;13.03;7.80;;;14.40;99.90;;;;;;4970929;28;20268;-87
2022/06/15 01:02:02;;;;;;;9.20;7.27;;;14.30;99.90;;;;;;4970881;28;20212;-89
2022/06/15 01:04:39;;;;;;;17.43;10.73;;;14.30;99.90;;;;;;4972189;28;20284;-87
2022/06/15 01:07:17;;;;;;;11.63;9.17;;;14.30;99.90;;;;;;4958072;28;20212;-88
2022/06/15 01:09:55;;;;;;;14.03;8.70;;;14.30;99.90;;;;;;4952929;29;20227;-86
2022/06/15 01:12:29;;;;;;;11.10;8.30;;;14.40;99.90;;;;;;4960148;28;20765;-87
2022/06/15 01:15:07;;;;;;;9.07;6.70;;;14.40;99.90;;;;;;4972600;28;20188;-88
2022/06/15 01:17:57;;;;;;;8.13;6.20;;;14.30;99.90;;;;;;4972452;28;20239;-89
2022/06/15 01:20:48;;;;;;;11.20;9.10;;;14.20;99.90;;;;;;4971937;28;20244;-88
2022/06/15 01:23:55;;;;;;;8.73;7.23;;;14.30;99.90;;;;;;4970562;28;20279;-89
2022/06/15 01:26:54;;;;;;;8.13;6.83;;;14.20;99.90;;;;;;4953011;29;20292;-90
2022/06/15 01:29:42;;;;;;;8.93;6.47;;;14.20;99.90;;;;;;4952349;29;20208;-86
2022/06/15 01:32:19;;;;;;;9.67;7.10;;;14.20;99.90;;;;;;4970814;28;20766;-88
2022/06/15 01:34:55;;;;;;;7.17;6.43;;;14.10;99.90;;;;;;4972030;28;20197;-89
2022/06/15 01:37:34;;;;;;;8.03;6.07;;;14.10;99.90;;;;;;4970897;28;20220;-89
2022/06/15 01:40:08;;;;;;;9.33;6.23;;;14.10;99.90;;;;;;4967904;28;20275;-89
2022/06/15 01:42:41;;;;;;;8.97;6.90;;;14.00;99.90;;;;;;4968620;28;20201;-89
2022/06/15 01:45:12;;;;;;;11.47;7.60;;;14.00;99.90;;;;;;4970894;28;20209;-87
2022/06/15 01:47:42;;;;;;;9.47;6.80;;;14.00;99.90;;;;;;4973997;28;20497;-89
2022/06/15 01:50:13;;;;;;;9.33;7.70;;;13.90;99.90;;;;;;4974262;28;20589;-87
2022/06/15 01:52:46;;;;;;;8.20;7.17;;;13.90;99.90;;;;;;4975071;28;20206;-86
2022/06/15 01:55:19;;;;;;;7.97;6.53;;;13.90;99.90;;;;;;4964924;28;20213;-87
2022/06/15 01:57:49;;;;;;;11.77;8.97;;;13.90;99.90;;;;;;4951781;29;20221;-88
2022/06/15 02:00:18;;;;;;;9.50;8.47;;;13.80;99.90;;;;;;4951724;28;20221;-86
2022/06/15 02:02:59;;;;;;;8.90;7.57;;;13.80;99.90;;;;;;4955554;29;20205;-85
2022/06/15 02:05:34;;;;;;;8.43;7.03;;;13.80;99.90;;;;;;4962472;28;20296;-88
2022/06/15 02:08:09;;;;;;;10.10;7.40;;;13.70;99.90;;;;;;4973975;28;20196;-87
2022/06/15 02:10:48;;;;;;;11.63;8.67;;;13.70;99.90;;;;;;4974372;28;20211;-87
2022/06/15 02:13:24;;;;;;;10.15;8.38;;;13.70;99.90;;;;;;4973624;28;20195;-88
2022/06/15 02:15:56;;;;;;;11.87;8.97;;;13.60;99.90;;;;;;4973840;28;20204;-87
2022/06/15 02:18:28;;;;;;;10.47;7.93;;;13.60;99.90;;;;;;4974301;28;20250;-87
2022/06/15 02:20:59;;;;;;;11.17;7.90;;;13.50;99.90;;;;;;4964146;28;20247;-88
2022/06/15 02:23:28;;;;;;;9.33;8.00;;;13.50;99.90;;;;;;4955071;29;20200;-88
2022/06/15 02:25:56;;;;;;;9.40;7.77;;;13.50;99.90;;;;;;4954940;29;20236;-86
2022/06/15 02:28:28;;;;;;;9.33;8.30;;;13.40;99.90;;;;;;4956955;28;20202;-87
2022/06/15 02:30:55;;;;;;;10.93;9.10;;;13.40;99.90;;;;;;4966214;28;20202;-87
2022/06/15 02:33:29;;;;;;;13.43;9.20;;;13.40;99.90;;;;;;4955014;29;20229;-85
2022/06/15 02:35:57;;;;;;;12.67;9.03;;;13.40;99.90;;;;;;4952527;29;20201;-88
2022/06/15 02:38:25;;;;;;;14.90;10.00;;;13.40;99.90;;;;;;4955864;28;20284;-89
2022/06/15 02:40:52;;;;;;;12.53;9.03;;;13.30;99.90;;;;;;4954975;29;20587;-89
2022/06/15 02:43:22;;;;;;;10.67;9.00;;;13.30;99.90;;;;;;4949471;29;20970;-87
2022/06/15 02:45:51;;;;;;;10.93;8.30;;;13.30;99.90;;;;;;4972571;28;20215;-88
2022/06/15 02:48:18;;;;;;;9.80;8.63;;;13.20;99.90;;;;;;4974514;28;20288;-89
2022/06/15 02:50:52;;;;;;;9.10;8.20;;;13.20;99.90;;;;;;4974208;28;20822;-89
2022/06/15 02:53:22;;;;;;;10.80;8.60;;;13.20;99.90;;;;;;4973980;28;20207;-89
2022/06/15 02:55:51;;;;;;;13.03;8.93;;;13.10;99.90;;;;;;4975067;28;20207;-87
2022/06/15 02:58:27;;;;;;;13.13;10.20;;;13.10;99.90;;;;;;4971790;28;20217;-88
2022/06/15 03:00:54;;;;;;;12.00;9.63;;;13.10;99.90;;;;;;4974165;28;20239;-88
2022/06/15 03:03:22;;;;;;;13.43;9.30;;;13.10;99.90;;;;;;4974198;28;20236;-87
2022/06/15 03:05:52;;;;;;;9.73;7.97;;;13.10;99.90;;;;;;4974191;28;20204;-89
2022/06/15 03:08:20;;;;;;;11.20;7.90;;;13.00;99.90;;;;;;4974029;28;20901;-88
2022/06/15 03:10:49;;;;;;;10.57;8.43;;;13.00;99.90;;;;;;4973984;28;20205;-86
2022/06/15 03:13:16;;;;;;;8.37;7.40;;;13.00;99.90;;;;;;4974126;28;20201;-88
2022/06/15 03:15:43;;;;;;;11.13;9.00;;;13.00;99.90;;;;;;4974424;28;20193;-88
2022/06/15 03:18:11;;;;;;;9.47;7.53;;;13.00;99.90;;;;;;4975568;28;20858;-88
2022/06/15 03:20:38;;;;;;;9.53;7.83;;;13.00;99.90;;;;;;4973691;28;20344;-87
2022/06/15 03:23:06;;;;;;;7.90;6.97;;;13.00;99.90;;;;;;4973880;28;20322;-88
2022/06/15 03:25:33;;;;;;;8.30;7.40;;;13.00;99.90;;;;;;4973143;28;20216;-88
2022/06/15 03:28:01;;;;;;;9.80;7.70;;;12.90;99.90;;;;;;4974182;28;20197;-87
2022/06/15 03:30:28;;;;;;;8.17;7.20;;;12.90;99.90;;;;;;4973513;28;20263;-87
2022/06/15 03:32:55;;;;;;;8.80;6.27;;;12.90;99.90;;;;;;4972739;28;20356;-87
2022/06/15 03:35:22;;;;;;;8.60;6.70;;;12.90;99.90;;;;;;4973578;28;20227;-87
2022/06/15 03:37:50;;;;;;;6.43;5.80;;;12.90;99.90;;;;;;4973318;28;20229;-87
2022/06/15 03:40:19;;;;;;;7.00;5.83;;;12.90;99.90;;;;;;4972358;28;21253;-86
2022/06/15 03:42:46;;;;;;;6.90;5.47;;;12.90;99.90;;;;;;4973591;28;20209;-87
2022/06/15 03:45:14;;;;;;;6.77;5.93;;;12.90;99.90;;;;;;4972601;28;20608;-87
2022/06/15 03:47:41;;;;;;;11.80;7.23;;;12.90;99.90;;;;;;4972113;28;20291;-87
2022/06/15 03:50:08;;;;;;;6.93;6.23;;;12.90;99.90;;;;;;4970658;28;20224;-87
2022/06/15 03:52:35;;;;;;;10.00;6.60;;;12.90;99.90;;;;;;4973664;28;20204;-88
2022/06/15 03:55:02;;;;;;;7.97;6.57;;;12.90;99.90;;;;;;4972324;28;20287;-86
2022/06/15 03:57:31;;;;;;;8.30;7.43;;;12.90;99.90;;;;;;4972909;28;20613;-89
2022/06/15 03:59:58;;;;;;;8.17;7.33;;;12.90;99.90;;;;;;4972282;28;20292;-85
2022/06/15 04:02:25;;;;;;;10.23;7.77;;;12.90;99.90;;;;;;4972600;28;20201;-86
2022/06/15 04:04:52;;;;;;;8.10;6.47;;;12.90;99.90;;;;;;4973099;28;20203;-87
2022/06/15 04:10:04;;;;;;;6.27;5.53;;;12.90;99.90;;;;;;4972288;28;20243;-85
2022/06/15 04:12:32;;;;;;;6.83;5.93;;;12.90;99.90;;;;;;4953350;29;20252;-87
2022/06/15 04:14:59;;;;;;;6.30;5.67;;;13.00;99.90;;;;;;4953682;29;20205;-88
2022/06/15 04:17:26;;;;;;;10.47;7.13;;;13.10;99.90;;;;;;4952972;29;20862;-87
2022/06/15 04:22:34;;;;;;;8.30;6.80;;;13.30;99.90;;;;;;4948989;28;20283;-88
2022/06/15 04:25:01;;;;;;;10.03;6.93;;;13.40;99.90;;;;;;4953542;29;20861;-88
2022/06/15 04:27:30;;;;;;;7.07;5.83;;;13.50;99.90;;;;;;4952868;29;20281;-88
2022/06/15 04:29:59;;;;;;;9.10;6.87;;;13.70;99.90;;;;;;4970793;28;20208;-88
2022/06/15 04:32:26;;;;;;;8.93;7.13;;;13.80;99.90;;;;;;4971486;28;20216;-88
2022/06/15 04:34:53;;;;;;;11.07;7.10;;;13.80;99.90;;;;;;4972913;28;20235;-87
2022/06/15 04:37:20;;;;;;;11.93;7.00;;;13.90;99.90;;;;;;4970735;28;20217;-86
2022/06/15 04:39:47;;;;;;;8.17;7.27;;;13.90;99.90;;;;;;4971987;28;20224;-86
2022/06/15 04:42:13;;;;;;;8.77;7.23;;;13.90;99.90;;;;;;4972268;28;20223;-87
2022/06/15 04:44:40;;;;;;;9.53;7.30;;;13.90;99.90;;;;;;4973332;28;20207;-88
2022/06/15 04:47:09;;;;;;;8.17;6.87;;;13.90;99.90;;;;;;4973123;28;20208;-87
2022/06/15 04:49:36;;;;;;;9.10;7.17;;;13.90;99.90;;;;;;4972834;28;20296;-87
2022/06/15 04:52:04;;;;;;;11.43;7.80;;;13.90;99.90;;;;;;4972165;28;20235;-86
2022/06/15 04:54:30;;;;;;;8.80;6.20;;;14.00;99.90;;;;;;4972994;28;20820;-87
2022/06/15 04:56:57;;;;;;;11.70;8.27;;;14.20;99.90;;;;;;4972668;28;20204;-88
2022/06/15 04:59:25;;;;;;;10.37;7.20;;;14.50;99.90;;;;;;4956295;28;20225;-88
2022/06/15 05:01:51;;;;;;;9.20;7.20;;;14.80;99.90;;;;;;4953272;29;20288;-88
2022/06/15 05:04:20;;;;;;;9.47;7.30;;;15.20;99.90;;;;;;4951757;28;20220;-88
2022/06/15 05:06:47;;;;;;;10.40;6.20;;;15.70;99.90;;;;;;4953409;29;20292;-88
2022/06/15 05:09:15;;;;;;;8.98;6.28;;;16.20;99.90;;;;;;4953377;29;20201;-88
2022/06/15 05:11:42;;;;;;;7.93;5.55;;;16.60;99.90;;;;;;4953205;29;20223;-88
2022/06/15 05:14:09;;;;;;;6.18;5.13;;;17.10;99.90;;;;;;4957194;28;20668;-89
2022/06/15 05:16:37;;;;;;;5.85;4.07;;;17.60;99.90;;;;;;4972499;28;20204;-89
2022/06/15 05:19:04;;;;;;;7.55;5.10;;;18.00;99.90;;;;;;4972455;28;20312;-90
2022/06/15 05:21:32;;;;;;;5.05;4.18;;;18.40;99.90;;;;;;4973506;28;20216;-89
2022/06/15 05:23:59;;;;;;;7.43;4.60;;;18.80;99.90;;;;;;4975731;28;20238;-90
2022/06/15 05:26:26;;;;;;;5.15;3.92;;;19.10;99.90;;;;;;4975977;28;20232;-88
2022/06/15 05:28:53;;;;;;;7.30;3.75;;;19.50;99.90;;;;;;4975994;28;20209;-88
2022/06/15 05:31:22;;;;;;;6.30;3.80;;;19.80;99.90;;;;;;4974665;28;20890;-88
2022/06/15 05:33:53;;;;;;;7.05;3.83;;;20.20;99.90;;;;;;4976727;28;20212;-90
2022/06/15 05:36:23;;;;;;;6.55;3.60;;;20.30;99.90;;;;;;4975949;28;20255;-87
2022/06/15 05:38:52;;;;;;;5.82;3.50;;;20.70;99.90;;;;;;4976874;28;20896;-91
2022/06/15 05:41:19;;;;;;;5.72;3.55;;;21.00;99.90;;;;;;4975806;28;20232;-88
2022/06/15 05:43:47;;;;;;;7.57;3.30;;;21.00;99.90;;;;;;4976883;28;20204;-89
2022/06/15 05:46:16;;;;;;;7.10;3.70;;;21.10;99.90;;;;;;4976088;28;20208;-88
2022/06/15 05:48:43;;;;;;;6.57;3.38;;;21.40;99.90;;;;;;4975862;28;20207;-88
2022/06/15 05:51:09;;;;;;;8.95;3.80;;;21.80;99.90;;;;;;4974375;28;20642;-89
2022/06/15 05:53:36;;;;;;;5.85;3.45;;;22.00;99.90;;;;;;4976466;28;20605;-90
2022/06/15 05:56:05;;;;;;;4.68;3.33;;;22.10;99.90;;;;;;4975583;28;20215;-90
2022/06/15 05:58:32;;;;;;;3.65;2.65;;;22.20;99.90;;;;;;4970593;28;20224;-88
2022/06/15 06:01:07;;;;;;;3.75;2.85;;;22.40;99.90;;;;;;4972158;28;20299;-89
2022/06/15 06:03:35;;;;;;;6.13;3.50;;;22.60;99.90;;;;;;4975682;28;20275;-92
2022/06/15 06:06:02;;;;;;;7.05;3.55;;;23.00;99.90;;;;;;4974832;28;20974;-89
2022/06/15 06:08:29;;;;;;;6.75;2.90;;;23.00;99.90;;;;;;4974910;28;20755;-88
2022/06/15 06:10:56;;;;;;;5.55;3.08;;;23.30;99.90;;;;;;4975177;28;20275;-88
2022/06/15 06:13:25;;;;;;;6.38;2.70;;;23.50;99.90;;;;;;4975332;28;20287;-89
2022/06/15 06:15:52;;;;;;;3.40;2.78;;;23.70;99.90;;;;;;4961715;28;20866;-88
2022/06/15 06:18:18;;;;;;;5.90;3.55;;;23.80;99.90;;;;;;4953221;29;20557;-89
2022/06/15 06:20:46;;;;;;;8.95;3.20;;;23.60;99.90;;;;;;4955223;28;20247;-90
2022/06/15 06:23:14;;;;;;;5.88;2.63;;;23.50;99.90;;;;;;4955306;28;20213;-86
2022/06/15 06:25:41;;;;;;;5.72;3.00;;;23.40;99.90;;;;;;4955346;29;20213;-89
2022/06/15 06:28:19;;;;;;;5.03;2.78;;;23.70;99.90;;;;;;4955566;29;20284;-89
2022/06/15 06:30:47;;;;;;;6.63;3.00;;;23.50;99.90;;;;;;4956100;29;20884;-88
2022/06/15 06:33:14;;;;;;;3.17;2.47;;;23.70;99.90;;;;;;4963582;28;20224;-87
2022/06/15 06:35:41;;;;;;;6.03;2.90;;;24.00;99.90;;;;;;4974723;28;20307;-86
2022/06/15 06:38:08;;;;;;;5.60;2.88;;;24.20;99.90;;;;;;4974711;28;20249;-89
2022/06/15 06:40:35;;;;;;;4.82;2.58;;;24.20;99.90;;;;;;4974909;28;20912;-90
2022/06/15 06:43:02;;;;;;;6.30;3.53;;;24.40;99.90;;;;;;4974720;28;20288;-87
2022/06/15 06:45:29;;;;;;;5.78;2.80;;;24.30;99.90;;;;;;4974650;28;20215;-88
2022/06/15 06:48:00;;;;;;;5.68;3.42;;;24.30;99.90;;;;;;4957570;28;20623;-88
2022/06/15 06:50:27;;;;;;;7.70;3.08;;;24.60;99.90;;;;;;4955245;29;20224;-87
2022/06/15 06:52:54;;;;;;;4.90;3.22;;;24.80;99.90;;;;;;4955567;29;20202;-88
2022/06/15 06:55:24;;;;;;;4.95;3.22;;;24.90;99.90;;;;;;4955179;29;20634;-88
2022/06/15 06:57:54;;;;;;;5.35;3.25;;;24.80;99.90;;;;;;4969860;28;20231;-88
2022/06/15 07:00:23;;;;;;;6.85;2.75;;;25.10;99.90;;;;;;4973041;28;20320;-87
2022/06/15 07:02:50;;;;;;;5.40;2.95;;;25.30;99.90;;;;;;4974458;28;20204;-89
2022/06/15 07:05:19;;;;;;;5.85;2.70;;;25.30;99.90;;;;;;4973823;28;20720;-89
2022/06/15 07:07:47;;;;;;;6.97;3.03;;;25.60;99.90;;;;;;4975388;28;20249;-91
2022/06/15 07:10:15;;;;;;;6.75;3.00;;;25.70;99.90;;;;;;4974712;28;20283;-87
2022/06/15 07:19:35;;;;;;;5.57;2.70;;;25.60;99.90;;;;;;4922570;28;20276;-88
2022/06/15 07:22:03;;;;;;;5.93;2.90;;;25.40;99.90;;;;;;4971064;28;20212;-87
2022/06/15 07:24:30;;;;;;;5.57;2.33;;;25.40;99.90;;;;;;4977127;28;20201;-87
2022/06/15 07:27:00;;;;;;;5.82;2.53;;;25.30;99.90;;;;;;4979463;28;20213;-91
2022/06/15 07:29:27;;;;;;;4.57;2.13;;;25.60;99.90;;;;;;4974043;28;20268;-88
2022/06/15 07:31:56;;;;;;;7.88;2.47;;;25.50;99.90;;;;;;4972647;28;20291;-89
2022/06/15 07:34:30;;;;;;;5.32;2.03;;;25.70;99.90;;;;;;4969881;28;20284;-89
2022/06/15 07:36:57;;;;;;;5.68;2.72;;;26.00;99.90;;;;;;4972242;28;20219;-86
2022/06/15 07:39:28;;;;;;;5.65;2.97;;;25.90;99.90;;;;;;4952709;29;20239;-87
2022/06/15 07:41:55;;;;;;;4.22;2.10;;;26.20;99.90;;;;;;4959988;28;20874;-91
2022/06/15 07:44:23;;;;;;;8.07;2.75;;;26.10;99.90;;;;;;4970271;28;20204;-86
2022/06/15 07:49:54;;;;;;;5.35;2.58;;;26.10;99.90;;;;;;4972029;28;20205;-88
2022/06/15 07:49:54;;;;;;;6.55;2.60;;;26.20;99.90;;;;;;4972390;28;20196;-89
2022/06/15 07:52:23;;;;;;;8.45;2.80;;;26.00;99.90;;;;;;4971378;28;20581;-87
2022/06/15 07:54:51;;;;;;;5.45;2.40;;;26.00;99.90;;;;;;4972601;28;20244;-88
2022/06/15 07:57:18;;;;;;;7.43;2.80;;;25.80;99.90;;;;;;4971417;28;20209;-87
2022/06/15 07:59:45;;;;;;;5.72;2.47;;;25.90;99.90;;;;;;4970664;28;20239;-87
2022/06/15 08:02:13;;;;;;;5.95;2.42;;;26.20;99.90;;;;;;4970798;28;20303;-88
2022/06/15 08:04:39;;;;;;;6.32;2.63;;;26.70;99.90;;;;;;4971612;28;20212;-89
2022/06/15 08:07:08;;;;;;;6.18;2.20;;;26.70;99.90;;;;;;4971855;28;20238;-87
2022/06/15 08:09:36;;;;;;;5.88;2.70;;;27.00;99.90;;;;;;4971462;28;20205;-87
2022/06/15 08:12:16;;;;;;;7.10;2.40;;;27.40;99.90;;;;;;4970177;28;20209;-84
2022/06/15 08:14:46;;;;;;;4.15;2.25;;;27.50;99.90;;;;;;4970517;28;20197;-86
2022/06/15 08:17:17;;;;;;;5.63;2.28;;;27.70;99.90;;;;;;4970309;28;20214;-87
2022/06/15 08:19:49;;;;;;;6.15;2.22;;;27.80;99.90;;;;;;4968896;28;20294;-87
2022/06/15 08:22:17;;;;;;;6.68;2.90;;;27.70;99.90;;;;;;4969683;28;20234;-86
2022/06/15 08:24:45;;;;;;;6.13;2.25;;;27.90;99.90;;;;;;4958716;28;20628;-85
2022/06/15 08:27:16;;;;;;;7.38;2.95;;;27.80;99.90;;;;;;4949433;29;20216;-85
2022/06/15 08:29:44;;;;;;;6.78;2.78;;;27.50;99.90;;;;;;4950578;29;20228;-85
2022/06/15 08:32:12;;;;;;;7.05;2.85;;;27.50;99.90;;;;;;4950388;29;20213;-84
2022/06/15 08:34:40;;;;;;;4.80;2.13;;;27.50;99.90;;;;;;4951006;28;20575;-86
2022/06/15 08:37:09;;;;;;;6.47;2.50;;;27.40;99.90;;;;;;4950515;29;20764;-85
2022/06/15 08:39:37;;;;;;;5.63;2.15;;;26.90;99.90;;;;;;4964327;28;20228;-87
2022/06/15 08:42:15;;;;;;;5.47;2.45;;;27.20;99.90;;;;;;4969670;28;20212;-87
2022/06/15 08:44:55;;;;;;;5.50;2.10;;;27.60;99.90;;;;;;4952059;28;20216;-85
2022/06/15 08:47:35;;;;;;;5.18;2.70;;;27.40;99.90;;;;;;4948789;29;20204;-87
2022/06/15 08:50:08;;;;;;;8.20;3.40;;;27.40;99.90;;;;;;4966825;28;20213;-83
2022/06/15 08:52:40;;;;;;;4.20;2.83;;;27.40;99.90;;;;;;4968489;28;20216;-85
2022/06/15 08:55:14;;;;;;;4.65;2.17;;;27.10;99.90;;;;;;4969718;28;20199;-84
2022/06/15 08:57:47;;;;;;;7.00;2.42;;;27.20;99.90;;;;;;4972711;28;20212;-84
2022/06/15 09:00:21;;;;;;;5.55;2.30;;;26.90;99.90;;;;;;4971780;28;20228;-85
2022/06/15 09:03:02;;;;;;;5.00;1.90;;;26.80;99.90;;;;;;4963179;28;20204;-86
2022/06/15 09:05:36;;;;;;;3.05;1.60;;;27.10;99.90;;;;;;4951525;29;20569;-86
2022/06/15 09:08:23;;;;;;;3.25;1.88;;;27.70;99.90;;;;;;4953417;29;20197;-83
2022/06/15 09:10:55;;;;;;;3.70;1.33;;;27.70;99.90;;;;;;4967898;28;20726;-84
2022/06/15 09:13:37;;;;;;;3.67;1.70;;;27.90;99.90;;;;;;4973937;28;20538;-89
2022/06/15 09:16:13;;;;;;;5.28;2.15;;;28.50;99.90;;;;;;4975372;28;20200;-85
2022/06/15 09:18:45;;;;;;;5.22;2.17;;;28.50;99.90;;;;;;4954524;28;20216;-89
2022/06/15 09:21:18;;;;;;;3.42;1.67;;;27.70;99.90;;;;;;4951405;29;20256;-84
2022/06/15 09:23:50;;;;;;;6.53;2.22;;;27.70;99.90;;;;;;4951651;28;20217;-81
2022/06/15 09:26:23;;;;;;;6.25;1.80;;;27.60;99.90;;;;;;4952867;28;20209;-88
2022/06/15 09:28:56;;;;;;;3.70;1.90;;;27.40;99.90;;;;;;4953575;28;20606;-84
2022/06/15 09:31:32;;;;;;;5.88;2.30;;;27.10;99.90;;;;;;4951081;29;20213;-81
2022/06/15 09:34:02;;;;;;;3.75;1.98;;;27.00;99.90;;;;;;4958750;28;20215;-82
2022/06/15 09:36:35;;;;;;;7.63;2.10;;;26.70;99.90;;;;;;4970038;28;20200;-84
2022/06/15 09:39:02;;;;;;;4.97;1.85;;;26.50;99.90;;;;;;4971580;28;20256;-84
2022/06/15 09:41:38;;;;;;;6.38;2.03;;;26.60;99.90;;;;;;4970380;28;20803;-87
2022/06/15 09:44:15;;;;;;;7.13;2.15;;;26.90;99.90;;;;;;4952961;29;20201;-84
2022/06/15 09:46:59;;;;;;;6.50;2.22;;;26.90;99.90;;;;;;4970130;28;20208;-83
2022/06/15 09:49:40;;;;;;;5.03;2.15;;;26.90;99.90;;;;;;4970971;28;20212;-84
2022/06/15 09:52:17;;;;;;;6.38;1.98;;;26.90;99.90;;;;;;4970725;28;20207;-85
2022/06/15 09:54:55;;;;;;;4.95;2.10;;;27.20;99.90;;;;;;4971552;28;20212;-88
2022/06/15 09:57:22;;;;;;;4.78;1.90;;;27.60;99.90;;;;;;4971347;28;20230;-85
2022/06/15 09:59:49;;;;;;;4.78;2.00;;;27.60;99.90;;;;;;4969334;28;20235;-84
2022/06/15 10:02:23;;;;;;;5.82;2.15;;;27.80;99.90;;;;;;4952015;29;20292;-85
2022/06/15 10:04:51;;;;;;;5.10;2.10;;;27.80;99.90;;;;;;4953601;28;20757;-87
2022/06/15 10:07:26;;;;;;;3.80;1.85;;;27.70;99.90;;;;;;4971095;28;20583;-86
2022/06/15 10:09:58;;;;;;;4.05;2.13;;;27.90;99.90;;;;;;4972140;28;20516;-91
2022/06/15 10:15:23;;;;;;;3.33;1.60;;;27.70;99.90;;;;;;4972494;28;20215;-82
2022/06/15 10:17:54;;;;;;;4.22;1.83;;;27.30;99.90;;;;;;4972383;28;20224;-87
2022/06/15 10:20:26;;;;;;;4.65;1.92;;;27.40;99.90;;;;;;4971415;28;20241;-84
2022/06/15 10:22:55;;;;;;;5.70;1.80;;;27.10;99.90;;;;;;4973890;28;20928;-85
2022/06/15 10:25:24;;;;;;;5.22;1.80;;;26.90;99.90;;;;;;4972576;28;20653;-86
2022/06/15 10:27:52;;;;;;;6.25;2.03;;;27.00;99.90;;;;;;4974033;28;20402;-89
2022/06/15 10:30:22;;;;;;;4.28;2.00;;;27.00;99.90;;;;;;4970495;28;20207;-90
2022/06/15 10:33:02;;;;;;;5.05;1.73;;;27.30;99.90;;;;;;4969127;28;20212;-86
2022/06/15 10:35:31;;;;;;;4.75;2.08;;;27.10;99.90;;;;;;4952442;29;20209;-87
2022/06/15 10:38:01;;;;;;;3.63;1.85;;;27.20;99.90;;;;;;4953786;29;20292;-86
2022/06/15 10:40:30;;;;;;;4.00;1.90;;;27.00;99.90;;;;;;4958215;28;20923;-86
2022/06/15 10:43:02;;;;;;;8.25;2.22;;;26.80;99.90;;;;;;4973630;28;20205;-92
2022/06/15 10:45:33;;;;;;;3.42;1.55;;;27.00;99.90;;;;;;4973215;28;20259;-85
2022/06/15 10:48:06;;;;;;;7.82;2.03;;;27.40;99.90;;;;;;4970342;28;20209;-83
2022/06/15 10:50:41;;;;;;;4.50;1.80;;;27.20;99.90;;;;;;4970772;28;20197;-84
2022/06/15 10:53:34;;;;;;;3.53;1.95;;;27.50;99.90;;;;;;4968735;28;20215;-82
2022/06/15 11:04:28;;;;;;;4.95;1.83;;;27.40;99.90;;;;;;4972285;28;20647;-86
2022/06/15 11:07:04;;;;;;;6.22;1.98;;;27.40;99.90;;;;;;4972985;28;20205;-88
2022/06/15 11:09:35;;;;;;;3.40;1.52;;;27.70;99.90;;;;;;4971894;28;20204;-88
2022/06/15 11:12:21;;;;;;;4.38;1.90;;;27.40;99.90;;;;;;4972148;28;20201;-86
2022/06/15 11:14:52;;;;;;;3.75;2.03;;;27.30;99.90;;;;;;4970821;28;20219;-86
2022/06/15 11:20:29;;;;;;;5.03;2.13;;;27.70;99.90;;;;;;4951691;28;20236;-85
2022/06/15 11:23:02;;;;;;;5.88;2.05;;;27.50;99.90;;;;;;4951232;28;20280;-84
2022/06/15 11:25:39;;;;;;;14.25;3.75;;;27.10;99.90;;;;;;4965495;28;20640;-84
2022/06/15 11:28:13;;;;;;;5.43;2.22;;;26.60;99.90;;;;;;4968759;28;20204;-84
2022/06/15 11:30:47;;;;;;;16.35;3.17;;;26.50;99.90;;;;;;4971433;28;20668;-84
2022/06/15 11:33:22;;;;;;;6.80;1.95;;;26.70;99.90;;;;;;4967976;28;20200;-83
2022/06/15 11:36:02;;;;;;;4.10;1.95;;;26.60;99.90;;;;;;4970611;28;20643;-84
2022/06/15 11:38:47;;;;;;;6.82;1.80;;;26.40;99.90;;;;;;4969189;28;20228;-83
2022/06/15 11:41:23;;;;;;;9.88;3.10;;;26.60;99.90;;;;;;4969423;28;20232;-86
2022/06/15 11:43:51;;;;;;;25.83;4.70;;;26.50;99.90;;;;;;4967167;28;20284;-82
2022/06/15 11:46:37;;;;;;;6.35;2.15;;;26.30;99.90;;;;;;4967579;28;20287;-81
2022/06/15 11:49:14;;;;;;;3.47;1.85;;;26.40;99.90;;;;;;4967423;28;20258;-84
2022/06/15 11:51:59;;;;;;;4.05;2.10;;;26.40;99.90;;;;;;4963898;28;20212;-83
2022/06/15 11:54:39;;;;;;;5.18;1.80;;;26.30;99.90;;;;;;4949641;29;20205;-84
2022/06/15 11:57:17;;;;;;;4.90;1.88;;;26.50;99.90;;;;;;4950200;28;20201;-84
2022/06/15 11:59:55;;;;;;;3.05;1.73;;;26.70;99.90;;;;;;4947902;29;20214;-85
2022/06/15 12:02:32;;;;;;;5.25;2.30;;;26.70;99.90;;;;;;4949149;28;20209;-84
2022/06/15 12:05:26;;;;;;;4.07;1.58;;;26.40;99.90;;;;;;4958699;28;20645;-83
2022/06/15 12:08:07;;;;;;;3.53;1.80;;;26.60;99.90;;;;;;4967739;28;20195;-83
2022/06/15 12:10:44;;;;;;;6.63;2.05;;;26.50;99.90;;;;;;4962783;28;20213;-86
2022/06/15 12:13:21;;;;;;;3.17;1.90;;;27.00;99.90;;;;;;4950826;29;20211;-85
2022/06/15 12:15:53;;;;;;;4.53;1.70;;;27.20;99.90;;;;;;4951200;29;20296;-82
2022/06/15 12:18:39;;;;;;;4.82;2.10;;;27.40;99.90;;;;;;4964430;28;20262;-81
2022/06/15 12:21:13;;;;;;;5.03;2.17;;;27.40;99.90;;;;;;4965151;28;20247;-79
2022/06/15 12:23:56;;;;;;;2.78;1.80;;;26.90;99.90;;;;;;4965987;28;20204;-78
2022/06/15 12:26:31;;;;;;;3.75;1.75;;;26.50;99.90;;;;;;4963375;28;20224;-80
2022/06/15 12:29:05;;;;;;;3.85;2.00;;;26.80;99.90;;;;;;4966622;28;20311;-81
2022/06/15 12:31:41;;;;;;;4.18;1.98;;;26.80;99.90;;;;;;4966616;28;20214;-82
2022/06/15 12:34:17;;;;;;;5.03;2.30;;;27.10;99.90;;;;;;4965893;28;20592;-86
2022/06/15 12:36:51;;;;;;;10.82;3.30;;;27.40;99.90;;;;;;4958539;28;20205;-85
2022/06/15 12:39:25;;;;;;;5.47;2.80;;;27.20;99.90;;;;;;4948877;29;20224;-82
2022/06/15 12:42:12;;;;;;;3.00;1.77;;;27.30;99.90;;;;;;4964886;28;20527;-83
2022/06/15 12:44:54;;;;;;;4.75;2.10;;;27.20;99.90;;;;;;4968403;28;20540;-81
2022/06/15 12:47:24;;;;;;;5.90;2.45;;;27.30;99.90;;;;;;4967922;28;20291;-82
2022/06/15 12:50:23;;;;;;;20.95;4.35;;;27.20;99.90;;;;;;4955246;28;20217;-84
2022/06/15 12:52:58;;;;;;;6.45;2.20;;;27.10;99.90;;;;;;4948704;29;20209;-82
2022/06/15 12:55:36;;;;;;;4.28;2.10;;;26.80;99.90;;;;;;4956543;28;20876;-84
2022/06/15 12:58:12;;;;;;;4.60;2.20;;;26.90;99.90;;;;;;4967355;28;20205;-83
2022/06/15 13:00:43;;;;;;;2.85;1.83;;;26.80;99.90;;;;;;4967819;28;20247;-82
2022/06/15 13:03:24;;;;;;;5.28;2.10;;;26.90;99.90;;;;;;4968987;28;20644;-81
2022/06/15 13:06:11;;;;;;;4.78;2.17;;;26.70;99.90;;;;;;4969003;28;20476;-82
2022/06/15 13:08:38;;;;;;;4.60;1.67;;;26.60;99.90;;;;;;4969291;28;20200;-84
2022/06/15 13:11:19;;;;;;;2.67;1.75;;;26.50;99.90;;;;;;4970092;28;20676;-84
2022/06/15 13:13:49;;;;;;;20.80;5.55;;;26.70;99.90;;;;;;4972615;28;20181;-83
2022/06/15 13:16:32;;;;;;;11.48;2.75;;;26.70;99.90;;;;;;4962314;28;20213;-83
2022/06/15 13:19:00;;;;;;;4.32;2.28;;;26.50;99.90;;;;;;4971917;28;20201;-83
2022/06/15 13:21:30;;;;;;;15.93;3.15;;;26.40;99.90;;;;;;4972083;28;20217;-83
2022/06/15 13:24:03;;;;;;;3.03;1.77;;;26.60;99.90;;;;;;4977224;28;20279;-85
2022/06/15 13:26:52;;;;;;;4.80;1.88;;;26.70;99.90;;;;;;4986490;28;20195;-85
2022/06/15 13:29:23;;;;;;;4.30;1.90;;;27.10;99.90;;;;;;4974975;28;20276;-84
2022/06/15 13:31:53;;;;;;;4.10;2.20;;;27.40;99.90;;;;;;4969067;28;20204;-86